Panama City, Panama
Current Conditions -  °F | °C
As of 8:00 PM on Tuesday 21 Oct 2014 (Local Time) from MPMG Reporting Station
Scattered Clouds Scattered Clouds  
Wind Chill: 82°   Ceiling: Unl
Heat Index: 89°   Visibility: 6mi
Dew Point: 75°   Wind: 3mph
Humidity: 79%   Direction: 170°S
Pressure: 29.83"   Gusts: NA
Location:  8.99°N, 79.52°W
Report Text: MPMG 220100Z 17003KT 9999 SCT018 28/24 Q1010 NOSIG
Loading
Personal Weather Stations






























Interactive Weather Map
Tropical Storm Tracking
New forecast layout! Learn more

10-Day Weather Forecast

Advertisements
Track Severe Weather on mobile